Time;durP1;ratioP1;P1;durP2;ratioP2;P2;SDS_P1;SDS_P2;PMS_P1;PMS_P2;Temp;Humidity;BMP_temperature;BMP_pressure;BME280_temperature;BME280_humidity;BME280_pressure;Samples;Min_cycle;Max_cycle;Signal;HPM_P1;HPM_P2
2024/02/12 00:01:29;;;;;;;5.50;3.40;;;;;;;9.84;74.79;97171.73;106520;1254;107611;-90
2024/02/12 00:04:00;;;;;;;4.70;3.50;;;;;;;9.80;74.83;97168.90;106563;1259;95500;-90
2024/02/12 00:06:36;;;;;;;5.30;3.30;;;;;;;9.78;74.93;97169.09;105530;1253;107654;-89
2024/02/12 00:09:09;;;;;;;4.40;2.90;;;;;;;9.77;75.01;97171.11;106165;1254;95160;-90
2024/02/12 00:11:40;;;;;;;4.00;2.60;;;;;;;9.78;75.00;97174.10;106120;1260;96224;-88
2024/02/12 00:14:12;;;;;;;4.70;3.10;;;;;;;9.77;74.97;97177.32;106646;1257;107266;-90
2024/02/12 00:16:48;;;;;;;4.40;3.30;;;;;;;9.77;74.95;97174.89;106656;1257;96605;-90
2024/02/12 00:19:17;;;;;;;6.30;3.40;;;;;;;9.76;75.02;97178.73;105364;1254;107988;-90
2024/02/12 00:21:48;;;;;;;4.60;3.30;;;;;;;9.76;75.17;97177.70;106407;1257;95342;-90
2024/02/12 00:24:21;;;;;;;5.90;3.10;;;;;;;9.75;75.07;97177.96;105530;1260;95285;-89
2024/02/12 00:26:50;;;;;;;4.70;3.50;;;;;;;9.73;75.08;97178.78;106836;1254;108980;-83
2024/02/12 00:29:26;;;;;;;6.00;3.00;;;;;;;9.73;75.18;97182.16;106710;1258;95329;-82
2024/02/12 00:31:58;;;;;;;5.00;3.50;;;;;;;9.73;75.09;97181.52;105872;1257;107208;-90
2024/02/12 00:34:28;;;;;;;5.80;3.80;;;;;;;9.73;75.12;97187.86;105561;1260;95262;-90
2024/02/12 00:37:00;;;;;;;6.50;3.80;;;;;;;9.72;75.17;97184.77;108671;1253;93101;-92
2024/02/12 00:39:32;;;;;;;3.90;3.20;;;;;;;9.72;75.31;97186.33;108585;1254;108636;-89
2024/02/12 00:42:12;;;;;;;4.80;3.80;;;;;;;9.72;75.19;97186.50;108567;1252;94234;-89
2024/02/12 00:44:40;;;;;;;4.00;3.20;;;;;;;9.71;75.23;97188.55;108613;1253;108080;-89
2024/02/12 00:47:12;;;;;;;4.40;3.40;;;;;;;9.72;75.23;97189.91;108650;1254;92955;-88
2024/02/12 00:49:59;;;;;;;5.50;3.30;;;;;;;9.72;75.19;97193.23;108817;1253;92933;-91
2024/02/12 00:52:28;;;;;;;7.60;3.90;;;;;;;9.72;75.28;97195.85;108600;1253;108143;-88
2024/02/12 00:55:12;;;;;;;5.30;4.00;;;;;;;9.73;75.42;97197.36;108512;1253;95202;-90
2024/02/12 00:57:47;;;;;;;5.00;3.60;;;;;;;9.75;75.41;97195.25;108533;1253;107530;-87
2024/02/12 01:00:35;;;;;;;4.70;3.30;;;;;;;9.75;75.42;97196.09;108475;1254;93281;-89
2024/02/12 01:03:19;;;;;;;4.60;3.20;;;;;;;9.76;75.42;97200.14;108678;1253;93055;-84
2024/02/12 01:05:50;;;;;;;5.40;3.50;;;;;;;9.76;75.54;97199.91;108557;1253;108012;-89
2024/02/12 01:08:43;;;;;;;6.90;4.30;;;;;;;9.77;75.56;97198.79;108563;1253;96975;-86
2024/02/12 01:11:24;;;;;;;5.30;3.40;;;;;;;9.76;75.61;97197.22;108596;1254;107746;-81
2024/02/12 01:13:54;;;;;;;5.70;3.40;;;;;;;9.77;75.63;97200.16;108514;1253;93081;-90
2024/02/12 01:16:46;;;;;;;5.00;3.50;;;;;;;9.77;75.62;97198.36;108648;1253;93702;-90
2024/02/12 01:19:17;;;;;;;5.40;3.70;;;;;;;9.77;75.57;97196.27;108589;1254;108626;-89
2024/02/12 01:22:01;;;;;;;5.40;3.60;;;;;;;9.76;75.72;97196.20;108457;1253;93619;-90
2024/02/12 01:24:40;;;;;;;;;;;;;;;;;;;;;
2024/02/12 01:27:18;;;;;;;5.30;3.90;;;;;;;9.79;75.84;97190.80;108564;1253;93294;-90
2024/02/12 01:29:49;;;;;;;6.20;4.50;;;;;;;9.79;75.86;97188.08;108492;1253;93012;-84
2024/02/12 01:32:23;;;;;;;4.50;3.40;;;;;;;9.79;75.86;97189.67;108418;1253;109498;-82
2024/02/12 01:35:33;;;;;;;5.40;3.50;;;;;;;9.79;75.95;97190.27;108599;1253;95487;-88
2024/02/12 01:38:11;;;;;;;4.50;3.70;;;;;;;9.77;75.81;97188.14;108636;1253;107489;-90
2024/02/12 01:40:54;;;;;;;5.80;4.00;;;;;;;9.75;75.89;97189.80;108646;1253;93128;-88
2024/02/12 01:43:36;;;;;;;6.30;4.20;;;;;;;9.72;76.01;97190.77;108579;1253;93025;-90
2024/02/12 01:46:23;;;;;;;4.90;3.50;;;;;;;9.70;76.09;97195.34;108404;1253;109531;-90
2024/02/12 01:49:09;;;;;;;6.20;4.00;;;;;;;9.69;75.98;97192.15;108507;1254;94214;-87
2024/02/12 01:51:59;;;;;;;4.50;3.70;;;;;;;9.67;76.07;97189.98;108686;1253;108044;-88
2024/02/12 01:54:42;;;;;;;5.10;4.00;;;;;;;9.67;76.02;97191.45;108737;1253;92955;-88
2024/02/12 01:57:14;;;;;;;5.80;4.00;;;;;;;9.67;76.11;97188.44;108709;1253;92955;-84
2024/02/12 01:59:45;;;;;;;7.40;3.90;;;;;;;9.68;76.21;97191.67;108890;1253;109002;-85
2024/02/12 02:02:20;;;;;;;4.80;3.80;;;;;;;9.68;76.23;97190.83;108731;1253;94322;-84
2024/02/12 02:05:00;;;;;;;6.00;3.70;;;;;;;9.67;76.22;97194.95;108745;1253;106281;-90
2024/02/12 02:07:52;;;;;;;5.00;3.50;;;;;;;9.66;76.24;97192.36;108583;1253;92881;-89
2024/02/12 02:10:39;;;;;;;3.80;3.40;;;;;;;9.66;76.20;97198.92;108644;1253;92964;-88
2024/02/12 02:13:07;;;;;;;5.20;3.30;;;;;;;9.66;76.23;97202.46;108687;1253;108146;-89
2024/02/12 02:16:03;;;;;;;5.60;3.80;;;;;;;9.65;76.28;97202.27;108438;1254;95399;-89
2024/02/12 02:18:31;;;;;;;7.30;3.90;;;;;;;9.67;76.36;97206.07;108548;1253;107623;-89
2024/02/12 02:21:00;;;;;;;4.80;3.60;;;;;;;9.68;76.28;97208.70;108568;1253;93077;-90
2024/02/12 02:23:40;;;;;;;8.30;4.60;;;;;;;9.67;76.41;97216.33;108709;1253;92920;-88
2024/02/12 02:26:22;;;;;;;5.90;4.10;;;;;;;9.69;76.34;97220.98;108681;1253;107902;-83
2024/02/12 02:29:01;;;;;;;5.70;3.80;;;;;;;9.68;76.45;97217.85;108518;1253;95717;-89
2024/02/12 02:31:31;;;;;;;6.80;4.10;;;;;;;9.69;76.39;97221.71;108471;1253;106371;-89
2024/02/12 02:34:02;;;;;;;4.90;3.80;;;;;;;9.69;76.46;97221.11;108575;1253;92912;-90
2024/02/12 02:36:38;;;;;;;5.30;3.60;;;;;;;9.69;76.45;97220.24;108509;1256;92956;-90
2024/02/12 02:39:17;;;;;;;5.40;4.10;;;;;;;9.68;76.47;97217.30;108561;1253;107986;-86
2024/02/12 02:42:00;;;;;;;6.40;3.90;;;;;;;9.68;76.45;97220.54;108506;1253;93908;-90
2024/02/12 02:44:48;;;;;;;6.40;3.90;;;;;;;9.66;76.48;97216.96;108625;1253;107661;-83
2024/02/12 02:47:21;;;;;;;5.40;4.00;;;;;;;9.66;76.49;97216.83;108500;1253;92961;-88
2024/02/12 02:49:51;;;;;;;7.60;3.90;;;;;;;9.64;76.54;97213.46;108504;1254;92980;-90
2024/02/12 02:52:22;;;;;;;6.50;4.40;;;;;;;9.64;76.59;97213.66;108572;1253;108602;-88
2024/02/12 02:54:50;;;;;;;6.60;4.00;;;;;;;9.64;76.70;97214.00;108367;1254;95683;-83
2024/02/12 02:57:18;;;;;;;4.90;4.00;;;;;;;9.65;76.62;97213.71;108503;1253;107579;-88
2024/02/12 02:59:47;;;;;;;5.80;4.30;;;;;;;9.65;76.67;97216.89;108583;1253;92948;-89
2024/02/12 03:02:31;;;;;;;5.90;4.20;;;;;;;9.64;76.73;97217.71;108541;1253;93027;-85
2024/02/12 03:05:03;;;;;;;6.90;4.70;;;;;;;9.63;76.70;97220.48;108401;1253;108541;-89
2024/02/12 03:07:36;;;;;;;7.30;4.20;;;;;;;9.62;76.71;97226.39;108692;1253;95513;-89
2024/02/12 03:10:08;;;;;;;5.70;4.20;;;;;;;9.62;76.80;97227.84;108595;1253;108160;-89
2024/02/12 03:12:50;;;;;;;6.80;4.60;;;;;;;9.62;76.73;97233.71;108633;1253;94295;-89
2024/02/12 03:15:48;;;;;;;7.60;4.60;;;;;;;9.62;76.84;97238.43;108486;1253;93223;-89
2024/02/12 03:18:45;;;;;;;6.10;4.40;;;;;;;9.62;76.88;97240.72;108874;1253;107217;-85
2024/02/12 03:21:20;;;;;;;6.00;4.00;;;;;;;9.62;76.87;97244.64;108512;1253;94592;-90
2024/02/12 03:23:49;;;;;;;6.50;4.30;;;;;;;9.61;76.92;97247.92;108605;1253;107614;-89
2024/02/12 03:26:37;;;;;;;8.20;4.70;;;;;;;9.62;76.90;97249.80;108466;1253;93056;-90
2024/02/12 03:29:12;;;;;;;10.80;6.50;;;;;;;9.62;76.90;97253.73;108632;1253;92934;-89
2024/02/12 03:31:40;;;;;;;12.70;6.90;;;;;;;9.63;76.86;97252.54;108418;1253;108576;-86
2024/02/12 03:34:20;;;;;;;;;;;;;;;;;;;;;
2024/02/12 03:37:07;;;;;;;9.50;5.30;;;;;;;9.62;76.98;97253.30;108534;1253;108399;-89
2024/02/12 03:39:58;;;;;;;9.70;5.20;;;;;;;9.63;76.90;97253.77;108476;1253;93131;-89
2024/02/12 03:42:32;;;;;;;9.30;4.90;;;;;;;9.62;77.04;97257.23;108490;1253;93035;-89
2024/02/12 03:45:05;;;;;;;8.60;4.50;;;;;;;9.61;76.91;97259.48;108472;1253;108762;-83
2024/02/12 03:47:40;;;;;;;10.60;5.60;;;;;;;9.60;77.05;97261.36;108615;1253;95311;-88
2024/02/12 04:02:07;;;;;;;8.20;5.80;;;;;;;9.59;77.07;97276.59;108575;1253;95206;-90
2024/02/12 04:04:49;;;;;;;7.50;5.10;;;;;;;9.58;77.16;97274.06;108599;1253;107882;-90
2024/02/12 04:07:39;;;;;;;9.60;5.80;;;;;;;9.57;77.28;97269.05;108359;1253;94256;-90
2024/02/12 04:10:18;;;;;;;7.30;4.90;;;;;;;9.58;77.21;97269.18;108682;1253;94331;-90
2024/02/12 04:13:40;;;;;;;12.30;5.30;;;;;;;9.55;77.26;97265.30;108606;1253;111848;-85
2024/02/12 04:16:24;;;;;;;;;;;;;;;;;;;;;
2024/02/12 04:19:16;;;;;;;10.60;5.10;;;;;;;9.48;77.28;97265.33;108610;1253;106964;-91
2024/02/12 04:21:52;;;;;;;;;;;;;;;9.45;77.23;97268.04;108557;1253;94278;-90
2024/02/12 04:24:23;;;;;;;7.30;5.00;;;;;;;9.42;77.44;97269.02;108643;1253;94565;-81
2024/02/12 04:26:55;;;;;;;9.70;5.30;;;;;;;9.44;77.47;97267.60;108519;1256;109865;-91
2024/02/12 04:29:32;;;;;;;8.90;4.90;;;;;;;9.47;77.48;97271.95;108431;1253;95543;-90
2024/02/12 04:32:05;;;;;;;8.90;5.70;;;;;;;9.51;77.48;97275.45;108610;1253;107694;-83
2024/02/12 04:34:44;;;;;;;10.10;6.30;;;;;;;9.52;77.43;97275.52;108510;1253;94338;-91
2024/02/12 04:37:50;;;;;;;15.00;10.80;;;;;;;9.55;77.41;97278.31;108629;1253;94505;-89
2024/02/12 04:40:33;;;;;;;;;;;;;;;;;;;;;
2024/02/12 04:47:20;;;;;;;13.20;7.40;;;;;;;9.50;77.47;97287.91;108398;1253;107926;-81
2024/02/12 04:49:48;;;;;;;9.90;6.70;;;;;;;9.49;77.39;97285.20;108753;1253;94249;-77
2024/02/12 04:52:26;;;;;;;7.00;5.40;;;;;;;9.49;77.52;97291.91;108700;1253;94319;-79
2024/02/12 04:55:45;;;;;;;;;;;;;;;;;;;;;
2024/02/12 04:58:26;;;;;;;10.90;6.80;;;;;;;9.45;77.80;97292.16;108545;1252;95691;-85
2024/02/12 05:01:39;;;;;;;;;;;;;;;;;;;;;
2024/02/12 05:11:45;;;;;;;8.80;6.00;;;;;;;9.28;78.33;97317.60;108214;1258;110030;-82
2024/02/12 05:14:46;;;;;;;12.10;7.00;;;;;;;9.21;78.43;97317.91;108577;1253;95434;-83
2024/02/12 05:17:23;;;;;;;9.90;6.20;;;;;;;9.14;78.48;97321.22;108407;1253;108145;-84
2024/02/12 05:23:10;;;;;;;6.80;4.40;;;;;;;9.02;78.61;97326.42;108597;1253;94648;-81
2024/02/12 05:26:06;;;;;;;6.70;4.40;;;;;;;8.96;78.49;97333.89;108528;1253;109657;-81
2024/02/12 05:28:50;;;;;;;8.30;5.10;;;;;;;8.89;78.62;97338.96;108439;1253;97130;-83
2024/02/12 05:31:25;;;;;;;7.10;4.60;;;;;;;8.85;78.63;97342.52;108426;1252;107670;-82
2024/02/12 05:33:54;;;;;;;7.60;4.20;;;;;;;8.80;78.70;97350.56;108380;1258;94271;-83
2024/02/12 05:36:30;;;;;;;7.10;4.50;;;;;;;8.73;78.73;97357.55;108645;1253;94390;-83
2024/02/12 05:39:02;;;;;;;6.50;4.10;;;;;;;8.69;78.77;97358.95;108667;1253;109454;-80
2024/02/12 05:41:37;;;;;;;8.60;4.70;;;;;;;8.65;78.64;97358.09;108506;1253;95630;-76
2024/02/12 05:44:05;;;;;;;6.80;4.40;;;;;;;8.64;78.81;97357.54;108715;1253;107955;-76
2024/02/12 05:46:34;;;;;;;6.90;4.50;;;;;;;8.61;78.75;97360.08;108663;1253;94274;-76
2024/02/12 05:49:03;;;;;;;6.70;4.40;;;;;;;8.58;78.76;97360.50;108675;1253;94331;-76
2024/02/12 05:51:32;;;;;;;6.30;4.60;;;;;;;8.56;78.78;97363.35;108716;1253;109270;-76
2024/02/12 05:54:01;;;;;;;6.40;4.70;;;;;;;8.53;78.74;97369.80;108727;1253;95173;-76
2024/02/12 05:56:29;;;;;;;8.90;5.20;;;;;;;8.51;78.75;97376.52;108742;1253;107180;-76
2024/02/12 05:58:57;;;;;;;9.30;5.90;;;;;;;8.52;78.85;97376.98;108670;1253;94271;-76
2024/02/12 06:01:25;;;;;;;7.00;4.70;;;;;;;8.51;78.76;97378.34;108699;1253;94540;-76
2024/02/12 06:03:53;;;;;;;6.30;4.30;;;;;;;8.50;78.90;97379.42;108653;1253;108525;-76
2024/02/12 06:06:21;;;;;;;7.70;5.10;;;;;;;8.50;79.02;97382.46;108670;1253;95511;-76
2024/02/12 06:08:49;;;;;;;9.40;6.20;;;;;;;8.49;78.98;97385.53;108717;1253;107389;-76
2024/02/12 06:11:17;;;;;;;10.60;5.60;;;;;;;8.48;78.99;97387.02;108685;1253;94776;-76
2024/02/12 06:13:45;;;;;;;7.00;4.90;;;;;;;8.48;79.12;97389.10;108716;1253;94594;-76
2024/02/12 06:16:13;;;;;;;6.90;4.10;;;;;;;8.49;79.20;97392.05;108695;1253;110131;-76
2024/02/12 06:18:41;;;;;;;9.40;5.60;;;;;;;8.47;79.06;97398.45;108682;1253;94776;-76
2024/02/12 06:21:09;;;;;;;14.40;7.30;;;;;;;8.42;79.21;97403.77;108638;1253;107327;-76
2024/02/12 06:23:37;;;;;;;10.90;6.50;;;;;;;8.37;79.07;97407.61;108605;1253;94314;-76
2024/02/12 06:26:05;;;;;;;12.40;6.10;;;;;;;8.35;79.26;97404.96;108725;1253;94505;-76
2024/02/12 06:28:34;;;;;;;10.60;6.10;;;;;;;8.32;79.37;97405.77;108688;1253;109936;-76
2024/02/12 06:31:02;;;;;;;16.30;6.80;;;;;;;8.29;79.24;97410.77;108739;1253;95502;-76
2024/02/12 06:33:30;;;;;;;21.80;9.60;;;;;;;8.27;79.47;97410.77;108615;1253;107626;-76
2024/02/12 06:36:01;;;;;;;17.40;8.50;;;;;;;8.21;79.51;97414.68;108677;1253;94463;-76
2024/02/12 06:38:29;;;;;;;19.90;9.60;;;;;;;8.19;79.59;97416.42;108716;1253;94532;-75
2024/02/12 06:41:01;;;;;;;10.00;5.90;;;;;;;8.15;79.60;97419.23;108748;1253;109911;-76
2024/02/12 06:43:28;;;;;;;8.40;5.40;;;;;;;8.12;79.52;97418.11;108669;1253;95302;-76
2024/02/12 06:45:57;;;;;;;7.30;4.60;;;;;;;8.09;79.65;97421.05;108667;1253;107706;-76
2024/02/12 06:48:25;;;;;;;7.70;5.20;;;;;;;8.06;79.76;97423.38;108701;1253;94244;-76
2024/02/12 06:50:53;;;;;;;6.50;4.50;;;;;;;8.03;79.90;97428.62;108826;1253;94473;-76
2024/02/12 06:53:21;;;;;;;7.10;4.80;;;;;;;7.98;79.97;97429.21;108741;1253;109342;-76
2024/02/12 06:55:49;;;;;;;5.70;4.30;;;;;;;7.97;79.90;97434.08;108806;1253;95241;-76
2024/02/12 06:58:17;;;;;;;5.90;3.80;;;;;;;7.97;79.75;97429.27;108696;1253;107168;-76
2024/02/12 07:00:45;;;;;;;14.30;5.90;;;;;;;8.00;79.92;97432.23;108668;1253;94254;-76
2024/02/12 07:03:13;;;;;;;18.90;9.30;;;;;;;8.02;79.82;97432.90;108713;1253;94823;-76
2024/02/12 07:05:41;;;;;;;12.70;7.10;;;;;;;8.01;79.90;97436.21;108805;1253;109957;-76
2024/02/12 07:08:11;;;;;;;12.10;7.40;;;;;;;8.00;79.93;97435.94;108747;1253;95294;-76
2024/02/12 07:10:39;;;;;;;17.80;10.30;;;;;;;7.98;79.92;97436.60;108736;1253;107114;-76
2024/02/12 07:13:07;;;;;;;17.40;11.10;;;;;;;7.95;80.05;97438.79;108745;1253;94538;-76
2024/02/12 07:15:36;;;;;;;14.10;9.80;;;;;;;7.98;79.96;97440.52;108774;1253;94565;-76
2024/02/12 07:18:04;;;;;;;12.90;8.50;;;;;;;7.99;79.95;97441.11;108732;1253;110007;-76
2024/02/12 07:20:32;;;;;;;11.10;6.50;;;;;;;8.03;80.06;97443.08;108781;1253;95435;-76
2024/02/12 07:23:00;;;;;;;14.10;7.30;;;;;;;8.05;80.06;97443.40;108707;1253;107668;-76
2024/02/12 07:25:28;;;;;;;9.10;5.80;;;;;;;8.08;80.01;97448.54;108683;1253;94700;-76
2024/02/12 07:27:55;;;;;;;14.20;7.50;;;;;;;8.10;80.04;97447.23;108722;1253;94713;-76
2024/02/12 07:30:23;;;;;;;12.70;6.70;;;;;;;8.13;80.31;97450.30;108752;1253;109898;-76
2024/02/12 07:32:51;;;;;;;16.50;8.60;;;;;;;8.19;80.20;97451.05;108785;1253;95454;-76
2024/02/12 07:35:19;;;;;;;17.10;10.50;;;;;;;8.23;80.15;97453.86;108725;1253;107550;-76
2024/02/12 07:37:49;;;;;;;15.20;8.70;;;;;;;8.26;80.33;97456.42;108719;1253;94279;-76
2024/02/12 07:40:17;;;;;;;14.40;8.80;;;;;;;8.31;80.28;97456.55;108766;1253;94687;-76
2024/02/12 07:42:45;;;;;;;11.20;6.40;;;;;;;8.32;80.21;97456.24;108738;1253;109792;-76
2024/02/12 07:45:13;;;;;;;9.00;5.10;;;;;;;8.34;80.09;97457.70;108752;1253;95601;-76
2024/02/12 07:47:43;;;;;;;7.50;4.70;;;;;;;8.36;80.19;97462.59;108777;1253;107573;-76
2024/02/12 07:50:12;;;;;;;7.90;4.90;;;;;;;8.37;80.24;97462.52;108720;1253;95376;-76
2024/02/12 07:52:40;;;;;;;8.20;4.90;;;;;;;8.40;80.18;97467.06;108761;1253;94222;-76
2024/02/12 07:55:10;;;;;;;8.40;5.00;;;;;;;8.42;80.06;97470.40;108754;1253;109339;-76
2024/02/12 07:57:40;;;;;;;7.00;4.60;;;;;;;8.44;80.28;97474.95;108761;1253;95822;-76
2024/02/12 08:00:14;;;;;;;8.00;4.80;;;;;;;8.46;80.22;97475.14;108744;1253;108306;-76
2024/02/12 08:02:45;;;;;;;7.50;5.30;;;;;;;8.48;80.39;97476.76;108760;1253;94224;-76
2024/02/12 08:05:15;;;;;;;7.70;4.80;;;;;;;8.51;80.38;97475.23;108774;1253;94256;-76
2024/02/12 08:07:43;;;;;;;6.20;4.20;;;;;;;8.57;80.34;97479.70;108767;1253;110026;-76
2024/02/12 08:10:29;;;;;;;6.30;4.90;;;;;;;8.59;80.20;97481.83;108773;1253;95602;-76
2024/02/12 08:12:57;;;;;;;13.10;6.50;;;;;;;8.59;80.32;97483.02;108748;1253;107380;-76
2024/02/12 08:15:25;;;;;;;10.10;6.20;;;;;;;8.61;80.34;97484.77;108767;1253;94228;-76
2024/02/12 08:17:54;;;;;;;9.10;5.20;;;;;;;8.63;80.30;97485.98;108830;1253;94220;-76
2024/02/12 08:20:22;;;;;;;12.10;6.70;;;;;;;8.66;80.36;97488.83;108798;1253;109933;-76
2024/02/12 08:22:50;;;;;;;11.00;6.30;;;;;;;8.68;80.31;97493.00;108793;1253;95760;-76
2024/02/12 08:25:18;;;;;;;11.60;5.70;;;;;;;8.72;80.29;97495.54;108712;1253;107554;-76
2024/02/12 08:27:46;;;;;;;13.60;7.20;;;;;;;8.75;80.31;97497.49;108753;1253;94247;-76
2024/02/12 08:30:14;;;;;;;15.70;7.70;;;;;;;8.78;80.31;97496.92;108786;1253;94532;-76
2024/02/12 08:32:42;;;;;;;14.30;8.20;;;;;;;8.80;80.22;97506.05;108738;1253;109891;-76
2024/02/12 08:35:10;;;;;;;16.90;7.80;;;;;;;8.81;80.37;97510.94;108815;1253;95486;-76
2024/02/12 08:37:39;;;;;;;15.70;7.20;;;;;;;8.82;80.34;97508.02;108741;1253;108152;-76
2024/02/12 08:40:07;;;;;;;9.90;6.40;;;;;;;8.85;80.30;97515.52;108747;1253;94263;-76
2024/02/12 08:42:37;;;;;;;9.70;6.50;;;;;;;8.88;80.44;97515.78;108779;1253;94414;-76
2024/02/12 08:45:05;;;;;;;15.30;8.80;;;;;;;8.91;80.40;97517.29;108733;1253;109897;-76
2024/02/12 08:47:33;;;;;;;14.90;9.20;;;;;;;8.94;80.42;97518.44;108802;1252;95530;-76
2024/02/12 08:50:03;;;;;;;17.90;10.80;;;;;;;8.97;80.38;97517.61;108778;1253;107599;-76
2024/02/12 08:52:31;;;;;;;16.30;9.60;;;;;;;9.00;80.55;97516.33;108776;1253;94283;-76
2024/02/12 08:55:06;;;;;;;17.70;9.60;;;;;;;9.03;80.43;97517.79;108742;1253;94225;-76
2024/02/12 08:57:34;;;;;;;13.70;7.50;;;;;;;9.07;80.45;97523.23;108829;1253;110737;-76
2024/02/12 09:00:04;;;;;;;12.80;7.50;;;;;;;9.09;80.36;97522.73;108817;1253;94745;-76
2024/02/12 09:02:32;;;;;;;9.50;5.60;;;;;;;9.12;80.35;97528.90;108732;1253;107804;-76
2024/02/12 09:05:01;;;;;;;8.00;4.70;;;;;;;9.14;80.34;97530.23;108752;1254;94228;-76
2024/02/12 09:07:29;;;;;;;8.40;4.80;;;;;;;9.17;80.28;97533.23;108814;1253;94327;-76
2024/02/12 09:09:57;;;;;;;6.40;4.50;;;;;;;9.19;80.30;97540.25;108711;1253;111048;-76
2024/02/12 09:12:26;;;;;;;5.60;3.90;;;;;;;9.20;80.36;97539.05;108805;1253;95291;-76
2024/02/12 09:15:14;;;;;;;;;;;;;;;9.23;80.35;97540.39;108758;1253;107982;-76
2024/02/12 09:17:44;;;;;;;6.40;3.90;;;;;;;9.26;80.34;97541.93;108751;1253;94568;-76
2024/02/12 09:20:14;;;;;;;6.10;4.10;;;;;;;9.31;80.29;97546.03;108757;1253;94565;-76
2024/02/12 09:22:43;;;;;;;7.70;4.40;;;;;;;9.36;80.38;97547.70;108750;1253;109878;-76
2024/02/12 09:25:12;;;;;;;6.00;3.90;;;;;;;9.42;80.40;97549.84;108815;1253;94695;-76
2024/02/12 09:27:45;;;;;;;6.20;4.30;;;;;;;9.47;80.36;97550.81;108755;1253;107648;-76
2024/02/12 09:30:16;;;;;;;7.40;5.30;;;;;;;9.49;80.31;97553.10;108744;1253;94271;-76
2024/02/12 09:32:44;;;;;;;7.10;4.20;;;;;;;9.53;80.34;97557.81;108783;1253;94315;-76
2024/02/12 09:35:17;;;;;;;5.80;4.00;;;;;;;9.56;80.20;97555.33;108774;1253;109344;-76
2024/02/12 09:37:47;;;;;;;6.60;3.50;;;;;;;9.57;80.23;97557.84;108797;1253;94773;-76
2024/02/12 09:40:19;;;;;;;8.80;4.90;;;;;;;9.56;80.28;97558.85;108731;1253;105904;-76
2024/02/12 09:42:48;;;;;;;10.10;5.30;;;;;;;9.50;80.21;97564.14;108722;1253;94786;-76
2024/02/12 09:45:16;;;;;;;8.40;4.70;;;;;;;9.48;80.20;97563.44;108709;1253;94335;-76
2024/02/12 09:47:45;;;;;;;6.20;3.50;;;;;;;9.44;80.19;97565.89;108773;1253;109260;-76
2024/02/12 09:50:15;;;;;;;7.50;4.60;;;;;;;9.46;80.21;97567.84;108759;1253;95660;-76
2024/02/12 09:52:44;;;;;;;8.70;4.60;;;;;;;9.46;80.14;97572.66;108739;1253;107713;-76
2024/02/12 09:55:14;;;;;;;7.90;4.90;;;;;;;9.41;80.07;97574.12;108775;1253;94288;-76
2024/02/12 09:57:43;;;;;;;15.60;6.30;;;;;;;9.41;80.15;97575.21;108825;1253;94341;-76
2024/02/12 10:00:12;;;;;;;11.40;6.30;;;;;;;9.44;80.07;97573.33;108800;1253;109984;-76
2024/02/12 10:02:41;;;;;;;9.70;5.90;;;;;;;9.44;80.09;97569.42;108785;1253;94564;-76
2024/02/12 10:05:12;;;;;;;7.90;4.80;;;;;;;9.45;80.05;97576.67;108692;1253;106618;-76
2024/02/12 10:07:40;;;;;;;9.20;5.30;;;;;;;9.41;79.88;97572.22;108526;1253;94255;-76
2024/02/12 10:10:12;;;;;;;8.10;4.90;;;;;;;9.38;79.92;97572.30;108787;1253;94248;-76
2024/02/12 10:12:41;;;;;;;9.40;5.00;;;;;;;9.41;80.01;97571.71;108635;1253;109920;-76
2024/02/12 10:15:13;;;;;;;9.30;5.20;;;;;;;9.41;79.82;97572.02;108773;1253;95523;-76
2024/02/12 10:17:42;;;;;;;15.10;7.90;;;;;;;9.35;79.62;97572.39;108839;1253;106842;-76
2024/02/12 10:20:11;;;;;;;10.30;5.80;;;;;;;9.32;79.79;97572.70;108635;1253;94384;-76
2024/02/12 10:22:40;;;;;;;10.10;4.90;;;;;;;9.36;79.76;97570.55;108822;1254;94247;-76
2024/02/12 10:25:11;;;;;;;8.40;4.10;;;;;;;9.39;79.71;97572.38;108824;1253;109867;-76
2024/02/12 10:27:39;;;;;;;7.80;4.70;;;;;;;9.37;79.52;97574.02;108705;1253;95540;-76
2024/02/12 10:30:08;;;;;;;5.50;4.30;;;;;;;9.34;79.56;97573.16;108748;1253;107936;-76
2024/02/12 10:32:37;;;;;;;8.70;4.40;;;;;;;9.37;79.56;97573.66;108769;1253;94650;-76
2024/02/12 10:35:11;;;;;;;6.70;4.10;;;;;;;9.38;79.42;97574.63;108829;1253;94357;-76
2024/02/12 10:37:39;;;;;;;7.90;4.00;;;;;;;9.34;79.31;97571.20;108829;1253;109570;-76
2024/02/12 10:40:13;;;;;;;5.80;3.80;;;;;;;9.28;79.32;97573.55;108618;1253;95458;-76
2024/02/12 10:42:51;;;;;;;6.60;4.10;;;;;;;9.27;79.22;97574.21;108769;1253;107439;-76
2024/02/12 10:45:20;;;;;;;6.70;4.20;;;;;;;9.25;79.21;97576.30;108777;1253;95003;-76
2024/02/12 10:47:48;;;;;;;7.70;4.00;;;;;;;9.24;79.11;97576.76;108746;1254;94260;-76
2024/02/12 10:50:17;;;;;;;7.70;3.80;;;;;;;9.23;79.13;97578.42;108804;1253;109652;-76
2024/02/12 10:52:48;;;;;;;7.20;3.90;;;;;;;9.22;79.04;97576.16;108781;1253;95019;-76
2024/02/12 10:55:16;;;;;;;11.90;4.50;;;;;;;9.22;78.95;97584.37;108788;1253;107348;-76
2024/02/12 10:57:46;;;;;;;10.30;5.20;;;;;;;9.19;78.90;97579.68;108694;1253;94327;-76
2024/02/12 11:03:36;;;;;;;6.50;4.30;;;;;;;9.20;78.78;97581.29;102461;1289;636566;-76
2024/02/12 11:06:10;;;;;;;8.40;4.20;;;;;;;9.18;78.82;97579.42;105814;1268;94322;-76
2024/02/12 11:08:46;;;;;;;9.20;4.50;;;;;;;9.20;78.85;97579.73;104871;1265;94341;-76
2024/02/12 11:11:29;;;;;;;9.00;4.90;;;;;;;9.24;78.78;97577.98;105643;1265;107283;-77
2024/02/12 11:14:01;;;;;;;13.10;6.40;;;;;;;9.26;78.83;97578.52;104760;1266;95490;-76
2024/02/12 11:16:31;;;;;;;9.90;5.70;;;;;;;9.29;78.82;97576.16;105067;1262;139332;-76
2024/02/12 11:19:01;;;;;;;10.80;6.10;;;;;;;9.30;78.78;97577.12;106231;1262;94325;-77
2024/02/12 11:21:35;;;;;;;9.60;4.80;;;;;;;9.32;78.82;97576.17;106519;1262;95235;-76
2024/02/12 11:24:04;;;;;;;7.40;5.20;;;;;;;9.35;78.75;97577.73;105281;1263;107079;-77
2024/02/12 11:26:48;;;;;;;9.40;5.30;;;;;;;9.38;78.80;97579.73;105512;1256;95310;-76
2024/02/12 11:29:17;;;;;;;14.80;7.00;;;;;;;9.40;78.75;97583.61;105135;1261;107313;-77
2024/02/12 11:31:48;;;;;;;7.60;4.10;;;;;;;9.43;78.67;97588.70;105751;1260;96214;-76
2024/02/12 11:34:18;;;;;;;11.00;5.20;;;;;;;9.40;78.54;97590.15;106550;1253;95185;-77
2024/02/12 11:36:57;;;;;;;8.20;4.70;;;;;;;9.37;78.58;97590.91;105757;1253;108522;-75
2024/02/12 11:39:25;;;;;;;;;;;;;;;9.38;78.48;97586.96;106765;1253;95329;-76
2024/02/12 11:41:53;;;;;;;8.20;4.20;;;;;;;9.39;78.61;97586.38;105566;1256;107611;-76
2024/02/12 11:44:21;;;;;;;8.20;4.70;;;;;;;9.39;78.47;97585.65;107274;1252;95180;-76
2024/02/12 11:46:57;;;;;;;7.40;4.50;;;;;;;9.39;78.42;97582.44;106140;1255;95196;-76
2024/02/12 11:49:25;;;;;;;9.40;5.30;;;;;;;9.39;78.38;97584.91;106322;1253;107658;-76
2024/02/12 11:51:55;;;;;;;12.90;7.00;;;;;;;9.39;78.47;97582.98;105778;1258;95709;-76
2024/02/12 11:54:23;;;;;;;12.00;6.20;;;;;;;9.37;78.27;97584.40;105848;1254;107571;-76
2024/02/12 11:56:51;;;;;;;9.80;5.20;;;;;;;9.37;78.33;97584.05;107316;1256;95324;-77
2024/02/12 11:59:21;;;;;;;11.80;6.70;;;;;;;9.36;78.29;97586.45;105840;1256;95857;-77
2024/02/12 12:01:50;;;;;;;9.30;5.50;;;;;;;9.34;78.18;97586.65;107771;1253;109113;-76
2024/02/12 12:04:18;;;;;;;8.30;5.30;;;;;;;9.33;78.11;97589.55;106549;1251;95346;-78
2024/02/12 12:06:46;;;;;;;9.70;5.90;;;;;;;9.35;78.19;97588.85;106736;1256;107257;-75
2024/02/12 12:09:21;;;;;;;6.50;4.30;;;;;;;9.37;78.11;97586.92;105177;1257;95369;-76
2024/02/12 12:11:49;;;;;;;5.70;3.50;;;;;;;9.36;78.06;97587.70;106103;1256;95145;-76
2024/02/12 12:14:18;;;;;;;7.20;3.80;;;;;;;9.37;78.01;97580.91;105467;1255;108468;-76
2024/02/12 12:16:46;;;;;;;5.70;3.60;;;;;;;9.36;77.88;97579.21;106268;1256;95263;-76
2024/02/12 12:19:37;;;;;;;8.80;6.00;;;;;;;9.35;77.95;97576.81;106245;1256;107092;-76
2024/02/12 12:22:17;;;;;;;10.80;7.70;;;;;;;9.35;77.83;97579.64;105740;1256;95338;-76
2024/02/12 12:24:45;;;;;;;8.40;5.40;;;;;;;9.37;77.87;97580.11;105652;1255;95193;-77
2024/02/12 12:27:26;;;;;;;8.10;4.90;;;;;;;9.38;77.84;97583.25;105222;1256;108438;-76
2024/02/12 12:29:56;;;;;;;4.80;3.30;;;;;;;9.37;77.84;97585.44;106808;1256;95555;-76
2024/02/12 12:32:25;;;;;;;6.80;4.00;;;;;;;9.36;77.67;97583.46;105633;1257;107510;-76
2024/02/12 12:34:53;;;;;;;8.90;5.40;;;;;;;9.35;77.70;97590.92;105636;1269;95248;-76
2024/02/12 12:37:21;;;;;;;6.30;3.60;;;;;;;9.37;77.72;97592.73;105335;1266;95224;-75